MAX weather

Miguel Aleman Airport
Comitán, Chiapas, Mexico

Public forecast

Using degrees Celsius for public forecast. Weather courtesy of forecast.io.

METAR (pilot weather report)

Closest report is Angel Albino Corzo International Airport, 56.4 nm (104.5 km) WNW. Retrieved 2019/06/19 15:40 UTC (1 hour ago):

MMTG 191540Z 36002KT 5SM SCT025 30/23 A2996 RMK 8/500 CU FRMG HZY

TAF (pilot weather forecast)

Forecast is more than 12 hours old.

Closest forecast is Angel Albino Corzo International Airport, 56.4 nm (104.5 km) WNW. Retrieved 2019/06/18 18:21 UTC (22 hours ago):

TAF MMTG 181717Z 1818/1918 12005KT P6SM SCT030 BKN120 TEMPO 1822/1902 4SM TSRA BKN015CB FM190200 35005KT 5SM -RA BKN015 BKN080 VC CB FM190600 00000KT 6SM HZ SCT030 BKN100 BKN300